createdAt,value
2022-12-04T00:04:39.235Z,36.30
2022-12-04T00:10:47.403Z,39.37
2022-12-04T00:16:51.001Z,44.87
2022-12-04T00:22:54.366Z,42.57
2022-12-04T00:28:56.912Z,49.67
2022-12-04T00:35:01.367Z,48.00
2022-12-04T00:41:04.834Z,51.63
2022-12-04T00:47:07.251Z,45.50
2022-12-04T00:53:09.794Z,39.10
2022-12-04T00:59:12.282Z,35.63
2022-12-04T01:05:14.774Z,37.53
2022-12-04T01:11:28.318Z,33.80
2022-12-04T01:17:34.817Z,29.73
2022-12-04T01:23:37.277Z,33.97
2022-12-04T01:29:39.768Z,33.87
2022-12-04T01:35:43.975Z,30.13
2022-12-04T01:41:48.754Z,34.43
2022-12-04T01:47:57.264Z,32.73
2022-12-04T01:54:02.741Z,32.63
2022-12-04T02:00:13.247Z,32.20
2022-12-04T02:06:15.751Z,32.07
2022-12-04T02:12:39.315Z,27.90
2022-12-04T02:18:48.823Z,29.60
2022-12-04T02:25:00.393Z,27.50
2022-12-04T02:31:05.928Z,33.80
2022-12-04T02:37:26.825Z,25.47
2022-12-04T02:43:43.915Z,33.93
2022-12-04T02:49:55.032Z,28.97
2022-12-04T02:56:09.604Z,30.03
2022-12-04T03:02:20.466Z,29.97
2022-12-04T03:08:28.927Z,31.63
2022-12-04T03:14:35.364Z,28.37
2022-12-04T03:20:39.852Z,33.17
2022-12-04T03:26:48.365Z,36.67
2022-12-04T03:33:12.748Z,35.83
2022-12-04T03:39:43.449Z,32.07
2022-12-04T03:45:57.025Z,35.63
2022-12-04T03:52:19.548Z,36.53
2022-12-04T03:58:28.814Z,37.83
2022-12-04T04:04:36.725Z,34.10
2022-12-04T04:10:38.754Z,35.87
2022-12-04T04:17:11.634Z,34.40
2022-12-04T04:23:35.210Z,38.13
2022-12-04T04:29:41.714Z,36.43
2022-12-04T04:35:55.390Z,32.63
2022-12-04T04:42:11.737Z,42.33
2022-12-04T04:48:25.107Z,36.80
2022-12-04T04:54:31.718Z,36.43
2022-12-04T05:00:35.227Z,37.73
2022-12-04T05:06:37.666Z,38.30
2022-12-04T05:12:47.216Z,41.97
2022-12-04T05:19:07.698Z,36.03
2022-12-04T05:25:13.212Z,32.13
2022-12-04T05:31:17.387Z,39.30
2022-12-04T05:37:21.155Z,35.13
2022-12-04T05:43:23.565Z,33.47
2022-12-04T05:49:27.086Z,32.67
2022-12-04T05:55:38.789Z,36.20
2022-12-04T06:01:44.126Z,39.47
2022-12-04T06:07:46.633Z,34.47
2022-12-04T06:13:52.082Z,34.67
2022-12-04T06:20:09.567Z,37.40
2022-12-04T06:26:14.086Z,31.63
2022-12-04T06:32:21.109Z,33.57
2022-12-04T06:38:24.006Z,28.77
2022-12-04T06:44:26.525Z,24.73
2022-12-04T06:50:30.980Z,27.87
2022-12-04T06:56:47.915Z,40.37
2022-12-04T07:03:00.091Z,34.70
2022-12-04T07:09:11.539Z,33.87
2022-12-04T07:15:17.243Z,38.43
2022-12-04T07:21:22.512Z,36.50
2022-12-04T07:27:34.006Z,30.67
2022-12-04T07:33:46.551Z,40.93
2022-12-04T07:40:01.608Z,34.27
2022-12-04T07:46:34.722Z,51.87
2022-12-04T07:52:48.120Z,43.23
2022-12-04T07:58:50.583Z,38.03
2022-12-04T08:04:55.195Z,37.17
2022-12-04T08:11:01.174Z,36.47
2022-12-04T08:17:07.963Z,33.60
2022-12-04T08:23:12.564Z,30.67
2022-12-04T08:29:15.010Z,27.03
2022-12-04T08:35:17.509Z,28.60
2022-12-04T08:41:24.452Z,32.30
2022-12-04T08:47:30.482Z,34.53
2022-12-04T08:53:34.932Z,29.10
2022-12-04T08:59:37.375Z,33.50
2022-12-04T09:05:42.883Z,32.20
2022-12-04T09:11:52.400Z,30.33
2022-12-04T09:17:54.903Z,31.07
2022-12-04T09:24:04.393Z,30.93
2022-12-04T09:30:09.731Z,28.40
2022-12-04T09:36:20.453Z,31.50
2022-12-04T09:42:30.384Z,29.57
2022-12-04T09:48:39.165Z,34.03
2022-12-04T09:54:48.901Z,37.40
2022-12-04T10:00:53.337Z,29.63
2022-12-04T10:07:14.607Z,31.83
2022-12-04T10:13:42.555Z,34.70
2022-12-04T10:19:50.081Z,38.43
2022-12-04T10:25:59.561Z,35.73
2022-12-04T10:32:31.965Z,32.00
2022-12-04T10:39:00.522Z,35.93
2022-12-04T10:45:06.749Z,30.00
2022-12-04T10:51:17.801Z,33.43
2022-12-04T10:57:28.610Z,33.83
2022-12-04T11:03:39.288Z,47.43
2022-12-04T11:09:44.539Z,42.43
2022-12-04T11:15:59.914Z,47.67
2022-12-04T11:22:30.536Z,36.50
2022-12-04T11:28:42.858Z,34.83
2022-12-04T11:34:46.540Z,33.30
2022-12-04T11:41:11.787Z,41.73
2022-12-04T11:47:34.144Z,37.57
2022-12-04T11:53:49.094Z,34.37
2022-12-04T12:00:32.465Z,37.00
2022-12-04T12:06:43.633Z,44.53
2022-12-04T12:13:04.128Z,42.27
2022-12-04T12:19:32.362Z,39.97
2022-12-04T12:26:07.929Z,58.63
2022-12-04T12:32:32.554Z,45.20
2022-12-04T12:39:02.315Z,41.47
2022-12-04T12:45:59.223Z,39.03
2022-12-04T12:52:28.361Z,42.87
2022-12-04T12:58:49.817Z,33.43
2022-12-04T13:05:42.979Z,38.73
2022-12-04T13:11:26.003Z,41.23
2022-12-04T13:17:41.197Z,36.20
2022-12-04T13:24:28.111Z,36.23
2022-12-04T13:31:08.099Z,35.83
2022-12-04T13:37:23.277Z,33.87
2022-12-04T13:43:37.766Z,45.10
2022-12-04T13:49:43.282Z,36.40
2022-12-04T13:56:04.445Z,42.60
2022-12-04T14:09:29.131Z,50.17
2022-12-04T14:15:42.664Z,37.70
2022-12-04T14:21:53.148Z,37.27
2022-12-04T14:27:57.397Z,34.53
2022-12-04T14:34:24.232Z,40.37
2022-12-04T14:40:38.729Z,27.90
2022-12-04T14:46:48.312Z,35.27
2022-12-04T14:52:53.733Z,31.90
2022-12-04T14:58:56.202Z,34.77
2022-12-04T15:05:03.735Z,30.37
2022-12-04T15:11:28.573Z,30.30
2022-12-04T15:17:34.462Z,39.87
2022-12-04T15:23:44.419Z,42.93
2022-12-04T15:29:51.642Z,30.57
2022-12-04T15:36:07.228Z,32.37
2022-12-04T15:42:28.839Z,32.80
2022-12-04T15:48:32.298Z,31.37
2022-12-04T15:54:41.803Z,35.93
2022-12-04T16:00:53.125Z,32.90
2022-12-04T16:06:58.771Z,34.80
2022-12-04T16:13:06.308Z,39.70
2022-12-04T16:19:19.768Z,40.60
2022-12-04T16:25:35.291Z,37.77
2022-12-04T16:31:40.853Z,38.03
2022-12-04T16:37:45.689Z,40.07
2022-12-04T16:43:58.417Z,38.30
2022-12-04T16:50:08.531Z,37.30
2022-12-04T16:56:13.230Z,35.03
2022-12-04T17:02:25.063Z,42.47
2022-12-04T17:08:29.777Z,43.77
2022-12-04T17:14:34.302Z,33.70
2022-12-04T17:20:36.731Z,37.30
2022-12-04T17:26:39.235Z,37.07
2022-12-04T17:32:44.903Z,37.83
2022-12-04T17:38:48.225Z,35.23
2022-12-04T17:44:52.677Z,39.67
2022-12-04T17:51:13.002Z,41.47
2022-12-04T17:57:19.408Z,36.20
2022-12-04T18:03:22.281Z,36.90
2022-12-04T18:09:25.659Z,35.83
2022-12-04T18:15:28.357Z,41.17
2022-12-04T18:21:35.605Z,41.03
2022-12-04T18:27:42.054Z,39.77
2022-12-04T18:33:45.585Z,42.87
2022-12-04T18:39:54.553Z,39.30
2022-12-04T18:46:07.875Z,35.53
2022-12-04T18:52:13.117Z,32.73
2022-12-04T18:58:17.567Z,35.07
2022-12-04T19:04:23.053Z,46.53
2022-12-04T19:10:26.818Z,38.10
2022-12-04T19:16:32.379Z,36.87
2022-12-04T19:22:42.044Z,36.30
2022-12-04T19:28:56.001Z,32.10
2022-12-04T19:34:59.630Z,35.07
2022-12-04T19:41:14.043Z,32.10
2022-12-04T19:47:16.493Z,31.63
2022-12-04T19:53:18.971Z,33.30
2022-12-04T19:59:21.453Z,34.93
2022-12-04T20:05:27.970Z,33.70
2022-12-04T20:11:31.456Z,32.37
2022-12-04T20:17:37.005Z,28.50
2022-12-04T20:23:42.771Z,30.37
2022-12-04T20:29:44.974Z,26.83
2022-12-04T20:35:47.405Z,29.53
2022-12-04T20:41:52.465Z,27.73
2022-12-04T20:47:55.437Z,27.10
2022-12-04T20:54:03.027Z,28.40
2022-12-04T21:00:08.988Z,23.50
2022-12-04T21:06:19.521Z,20.47
2022-12-04T21:12:45.346Z,24.93
2022-12-04T21:18:52.846Z,26.57
2022-12-04T21:24:58.175Z,19.03
2022-12-04T21:31:10.884Z,19.43
2022-12-04T21:37:17.632Z,17.50
2022-12-04T21:43:28.513Z,19.63
2022-12-04T21:49:31.304Z,14.03
2022-12-04T21:55:37.799Z,16.43
2022-12-04T22:01:40.310Z,12.17
2022-12-04T22:07:47.468Z,14.23
2022-12-04T22:13:51.204Z,13.23
2022-12-04T22:19:56.918Z,14.30
2022-12-04T22:26:18.256Z,12.60
2022-12-04T22:32:20.679Z,14.43
2022-12-04T22:38:23.139Z,13.30
2022-12-04T22:44:25.673Z,15.13
2022-12-04T22:50:28.157Z,12.20
2022-12-04T22:56:33.604Z,13.50
2022-12-04T23:02:39.826Z,14.47
2022-12-04T23:08:43.549Z,13.10
2022-12-04T23:14:48.062Z,13.23
2022-12-04T23:20:50.552Z,11.23
2022-12-04T23:26:54.381Z,10.80
2022-12-04T23:32:56.462Z,12.10
2022-12-04T23:38:59.902Z,13.57
2022-12-04T23:45:02.387Z,12.37
2022-12-04T23:51:06.859Z,14.50
2022-12-04T23:57:09.337Z,13.97
